Flight Track Log - Related Links

Times and Time Zones

All times are in EDT time to prevent confusion due to time zone crossing. See the UAL4305 flight status page for this flight to view local times or setup timezone preferences in your user account.

Time Position Orientation Groundspeed Altitude Reporting Facility
EDT Latitude Longitude Course Direction KTS MPH feet Rate Location/Type
Sun 08:09:23 PM 27.7628 -97.4992 24° Northeast 116 133 900  Level Houston Center
Sun 08:09:59 PM 27.7453 -97.4733 127° Southeast 154 177 2,600 2,267 Climbing Houston Center
Sun 08:10:53 PM 27.7722 -97.4400 48° Northeast 253 291 4,300 2,224 Climbing Houston Center
Sun 08:11:55 PM 27.8506 -97.4183 14° North 286 329 6,900 2,855 Climbing Houston Center
Sun 08:12:00 PM 27.9278 -97.4194 24° Northeast  Level FlightAware Approximate
Sun 08:12:57 PM 27.9425 -97.3878 16° North 289 333 10,200  Level Houston Center
Sun 08:13:00 PM 27.9843 -97.3963 19° North  Level FlightAware Approximate
Sun 08:13:59 PM 28.0286 -97.3581 17° North 320 368 11,000  Level Houston Center
Sun 08:14:00 PM 28.0402 -97.3716 24° Northeast  Level FlightAware Approximate
Sun 08:15:01 PM 28.1250 -97.3231 18° North 361 415 13,000  Level Houston Center
Sun 08:16:03 PM 28.2211 -97.2822 21° North 368 423 14,700 1,597 Climbing Houston Center
Sun 08:17:05 PM 28.3203 -97.2356 23° Northeast 384 442 16,300 1,065 Climbing Houston Center
Sun 08:18:07 PM 28.4111 -97.1578 37° Northeast 409 471 16,900 341 Climbing Houston Center
Sun 08:19:08 PM 28.5256 -97.0578 38° Northeast 430 495 17,000 49 Climbing Houston Center
Sun 08:20:10 PM 28.6200 -96.9772 37° Northeast 428 493 17,000  Level Houston Center
Sun 08:21:12 PM 28.7153 -96.8944 37° Northeast 430 495 17,000  Level Houston Center
Sun 08:22:14 PM 28.8106 -96.8108 38° Northeast 433 498 17,000  Level Houston Center
Sun 08:23:16 PM 28.9042 -96.7292 37° Northeast 428 493 17,000  Level Houston Center
Sun 08:24:18 PM 29.0192 -96.6306 37° Northeast 433 498 17,000  Level Houston Center
Sun 08:25:19 PM 29.1125 -96.5483 38° Northeast 429 494 17,000 58 Level Houston Center
Sun 08:26:02 PM 29.1864 -96.4842 37° Northeast 434 499 17,100 -97 Climbing Houston Center
Sun 08:26:21 PM 29.2067 -96.4653 39° Northeast 431 496 16,900 -1,575 Descending Houston Center
Sun 08:27:22 PM 29.3056 -96.3803 37° Northeast 419 482 15,000 -1,790 Descending Houston Center
Sun 08:28:25 PM 29.3894 -96.3056 38° Northeast 413 475 13,200 -1,776 Descending Houston Center
Sun 08:29:27 PM 29.4761 -96.2300 37° Northeast 397 457 11,300 -1,524 Descending Houston Center
Sun 08:30:31 PM 29.5617 -96.1336 44° Northeast 331 381 10,000 -634 Descending Houston Center
Sun 08:31:30 PM 29.6042 -96.0528 59° Northeast 322 371 10,000  Level Houston Center
Sun 08:32:32 PM 29.6456 -95.9733 59° Northeast 303 349 10,000 -677 Level Houston Center
Sun 08:33:34 PM 29.7217 -95.9261 28° Northeast 309 356 8,600 -1,065 Descending Houston Center
Sun 08:34:36 PM 29.7994 -95.8517 40° Northeast 308 354 7,800 -677 Descending Houston Center
Sun 08:35:38 PM 29.8553 -95.8025 37° Northeast 308 354 7,200 -732 Descending Houston Center
Sun 08:36:39 PM 29.9350 -95.7319 37° Northeast 301 346 6,300 -732 Descending Houston Center
Sun 08:37:41 PM 29.9819 -95.6739 47° Northeast 278 320 5,700 -724 Descending Houston Center
Sun 08:38:35 PM 29.9939 -95.6075 78° East 211 243 4,900 -1,043 Descending Houston Center
Sun 08:39:36 PM 29.9925 -95.5450 91° East 189 217 3,700 -1,180 Descending Houston Center

Login

Don't have an account? Register now (free) for customized features, flight alerts, and more!